EZY154V EGPH-EGAE
Flight info
| Callsign | EZY154V |
|---|---|
| Flight time | N/A |
| Altitude | 22000 |
| Route | GOSAM P600 TRN N562 MAC N552 RUBEX |
| Aircraft | A20N/M-SDE2E3FGHIJ1RWXYZ/LB1G1 |
Departure
| Time | 2026-05-05 13:50 |
|---|---|
| Airport | Edinburgh Airport (EGPH) |
Arrival
| Time | N/A |
|---|---|
| Airport | City of Derry Airport (EGAE) |
| Time | Latitude | Longitude | Altitude | Speed | Heading |
|---|---|---|---|---|---|
| 2026-05-05 13:24 | 55.94939 | -3.36356 | 116 ft | 0 kts | 148° |
| 2026-05-05 13:43 | 55.94958 | -3.36375 | 111 ft | 4 kts | 153° |
| 2026-05-05 13:44 | 55.94983 | -3.36394 | 113 ft | 4 kts | 166° |
| 2026-05-05 13:44 | 55.95008 | -3.36398 | 115 ft | 4 kts | 205° |
| 2026-05-05 13:44 | 55.95019 | -3.36383 | 113 ft | 1 kts | 239° |
| 2026-05-05 13:44 | 55.95020 | -3.36380 | 114 ft | 0 kts | 239° |
| 2026-05-05 13:46 | 55.95016 | -3.36392 | 113 ft | 6 kts | 239° |
| 2026-05-05 13:46 | 55.94973 | -3.36518 | 114 ft | 15 kts | 238° |
| 2026-05-05 13:47 | 55.94908 | -3.36705 | 116 ft | 20 kts | 238° |
| 2026-05-05 13:47 | 55.94928 | -3.36878 | 113 ft | 13 kts | 271° |
| 2026-05-05 13:47 | 55.94884 | -3.37016 | 114 ft | 14 kts | 239° |
| 2026-05-05 13:47 | 55.94830 | -3.37184 | 113 ft | 17 kts | 241° |
| 2026-05-05 13:48 | 55.94762 | -3.37381 | 116 ft | 20 kts | 234° |
| 2026-05-05 13:48 | 55.94686 | -3.37602 | 113 ft | 22 kts | 237° |
| 2026-05-05 13:48 | 55.94603 | -3.37849 | 113 ft | 25 kts | 237° |
| 2026-05-05 13:48 | 55.94508 | -3.38123 | 115 ft | 27 kts | 239° |
| 2026-05-05 13:49 | 55.94408 | -3.38425 | 114 ft | 28 kts | 238° |
| 2026-05-05 13:49 | 55.94314 | -3.38696 | 112 ft | 27 kts | 238° |
| 2026-05-05 13:49 | 55.94304 | -3.38885 | 113 ft | 15 kts | 314° |
| 2026-05-05 13:49 | 55.94404 | -3.38964 | 113 ft | 13 kts | 19° |
| 2026-05-05 13:50 | 55.94485 | -3.38766 | 110 ft | 43 kts | 57° |
| 2026-05-05 13:50 | 55.94762 | -3.37956 | 112 ft | 106 kts | 59° |
| 2026-05-05 13:50 | 55.95238 | -3.36597 | 323 ft | 137 kts | 60° |
| 2026-05-05 13:50 | 55.95750 | -3.35168 | 1156 ft | 133 kts | 61° |
| 2026-05-05 13:51 | 55.96295 | -3.33858 | 1883 ft | 133 kts | 49° |
| 2026-05-05 13:51 | 55.97017 | -3.32649 | 2370 ft | 150 kts | 45° |
| 2026-05-05 13:51 | 55.97833 | -3.31330 | 2922 ft | 170 kts | 44° |
| 2026-05-05 13:51 | 55.98765 | -3.29828 | 3473 ft | 190 kts | 43° |
| 2026-05-05 13:52 | 55.99834 | -3.28220 | 3960 ft | 214 kts | 30° |
| 2026-05-05 13:52 | 56.00790 | -3.27601 | 4280 ft | 232 kts | 9° |
| 2026-05-05 13:52 | 56.03007 | -3.28385 | 5183 ft | 258 kts | 330° |
| 2026-05-05 13:52 | 56.03964 | -3.29705 | 5338 ft | 264 kts | 314° |
| 2026-05-05 13:53 | 56.04963 | -3.33573 | 5502 ft | 262 kts | 276° |
| 2026-05-05 13:53 | 56.04888 | -3.35780 | 5580 ft | 266 kts | 257° |
| 2026-05-05 13:53 | 56.04081 | -3.38768 | 5720 ft | 270 kts | 237° |
| 2026-05-05 13:53 | 56.03010 | -3.41475 | 5839 ft | 270 kts | 238° |
| 2026-05-05 13:54 | 56.02072 | -3.44371 | 5943 ft | 267 kts | 245° |
| 2026-05-05 13:54 | 56.01155 | -3.48453 | 6107 ft | 266 kts | 253° |
| 2026-05-05 13:54 | 56.00787 | -3.50603 | 6106 ft | 266 kts | 256° |
| 2026-05-05 13:54 | 56.00313 | -3.53749 | 6095 ft | 266 kts | 257° |
| 2026-05-05 13:55 | 55.99862 | -3.56959 | 6102 ft | 266 kts | 258° |
| 2026-05-05 13:55 | 55.99416 | -3.60171 | 6102 ft | 265 kts | 257° |
| 2026-05-05 13:55 | 55.98967 | -3.63379 | 6092 ft | 266 kts | 257° |
| 2026-05-05 13:55 | 55.98513 | -3.66590 | 6097 ft | 265 kts | 257° |
| 2026-05-05 13:56 | 55.98063 | -3.69747 | 6098 ft | 266 kts | 257° |
| 2026-05-05 13:56 | 55.97604 | -3.72946 | 6096 ft | 265 kts | 257° |
| 2026-05-05 13:56 | 55.97143 | -3.76137 | 6089 ft | 265 kts | 257° |
| 2026-05-05 13:56 | 55.96681 | -3.79335 | 6098 ft | 266 kts | 257° |
| 2026-05-05 13:57 | 55.96218 | -3.82542 | 6324 ft | 268 kts | 257° |
| 2026-05-05 13:57 | 55.95752 | -3.85755 | 7176 ft | 266 kts | 257° |
| 2026-05-05 13:57 | 55.95291 | -3.88910 | 8367 ft | 262 kts | 258° |
| 2026-05-05 13:57 | 55.94829 | -3.92083 | 9390 ft | 265 kts | 258° |
| 2026-05-05 13:58 | 55.94365 | -3.95274 | 10311 ft | 271 kts | 258° |
| 2026-05-05 13:58 | 55.93812 | -3.98624 | 10798 ft | 294 kts | 251° |
| 2026-05-05 13:58 | 55.92781 | -4.01900 | 11138 ft | 320 kts | 236° |
| 2026-05-05 13:58 | 55.91211 | -4.04839 | 11838 ft | 332 kts | 224° |
| 2026-05-05 13:59 | 55.87435 | -4.09827 | 13579 ft | 342 kts | 217° |
| 2026-05-05 13:59 | 55.85447 | -4.12189 | 14388 ft | 346 kts | 217° |
| 2026-05-05 14:00 | 55.81392 | -4.17006 | 15911 ft | 353 kts | 217° |
| 2026-05-05 14:00 | 55.79364 | -4.19444 | 16655 ft | 357 kts | 217° |
| 2026-05-05 14:00 | 55.77291 | -4.21965 | 17405 ft | 361 kts | 218° |
| 2026-05-05 14:00 | 55.75228 | -4.24529 | 18141 ft | 364 kts | 218° |
| 2026-05-05 14:01 | 55.73141 | -4.27137 | 18811 ft | 368 kts | 218° |
| 2026-05-05 14:01 | 55.71028 | -4.29774 | 19437 ft | 372 kts | 218° |
| 2026-05-05 14:01 | 55.68925 | -4.32389 | 20057 ft | 376 kts | 218° |
| 2026-05-05 14:01 | 55.66769 | -4.35062 | 20668 ft | 379 kts | 217° |
| 2026-05-05 14:02 | 55.64590 | -4.37757 | 21274 ft | 383 kts | 217° |
| 2026-05-05 14:02 | 55.62390 | -4.40474 | 21688 ft | 388 kts | 217° |
| 2026-05-05 14:02 | 55.60173 | -4.43206 | 21807 ft | 387 kts | 217° |
| 2026-05-05 14:02 | 55.57953 | -4.45936 | 21927 ft | 388 kts | 217° |
| 2026-05-05 14:03 | 55.55731 | -4.48666 | 22033 ft | 389 kts | 217° |
| 2026-05-05 14:03 | 55.53536 | -4.51359 | 22047 ft | 389 kts | 217° |
| 2026-05-05 14:03 | 55.51308 | -4.54089 | 22053 ft | 389 kts | 217° |
| 2026-05-05 14:03 | 55.49079 | -4.56815 | 22051 ft | 389 kts | 217° |
| 2026-05-05 14:04 | 55.46844 | -4.59547 | 22048 ft | 389 kts | 217° |
| 2026-05-05 14:04 | 55.44633 | -4.62244 | 22045 ft | 389 kts | 217° |
| 2026-05-05 14:04 | 55.42397 | -4.64968 | 22049 ft | 390 kts | 217° |
| 2026-05-05 14:04 | 55.40164 | -4.67685 | 22047 ft | 390 kts | 217° |
| 2026-05-05 14:05 | 55.37927 | -4.70403 | 22047 ft | 390 kts | 217° |
| 2026-05-05 14:05 | 55.35740 | -4.73205 | 22046 ft | 388 kts | 224° |
| 2026-05-05 14:05 | 55.33995 | -4.76788 | 22049 ft | 385 kts | 240° |
| 2026-05-05 14:05 | 55.32912 | -4.81068 | 22050 ft | 383 kts | 256° |
| 2026-05-05 14:06 | 55.32569 | -4.85683 | 22054 ft | 382 kts | 271° |
| 2026-05-05 14:06 | 55.32950 | -4.90223 | 22051 ft | 381 kts | 283° |
| 2026-05-05 14:06 | 55.33583 | -4.94751 | 22052 ft | 381 kts | 283° |
| 2026-05-05 14:06 | 55.34215 | -4.99278 | 22051 ft | 381 kts | 283° |
| 2026-05-05 14:07 | 55.34840 | -5.03805 | 22054 ft | 381 kts | 283° |
| 2026-05-05 14:07 | 55.35463 | -5.08357 | 22056 ft | 381 kts | 283° |
| 2026-05-05 14:07 | 55.36074 | -5.12853 | 22061 ft | 381 kts | 283° |
| 2026-05-05 14:07 | 55.36688 | -5.17394 | 22062 ft | 381 kts | 283° |
| 2026-05-05 14:08 | 55.37301 | -5.21940 | 22065 ft | 381 kts | 283° |
| 2026-05-05 14:08 | 55.37905 | -5.26442 | 22065 ft | 381 kts | 283° |
| 2026-05-05 14:08 | 55.38513 | -5.30983 | 22068 ft | 381 kts | 283° |
| 2026-05-05 14:08 | 55.39119 | -5.35517 | 22070 ft | 381 kts | 283° |
| 2026-05-05 14:09 | 55.39724 | -5.40070 | 22071 ft | 381 kts | 283° |
| 2026-05-05 14:09 | 55.40326 | -5.44609 | 22074 ft | 380 kts | 283° |
| 2026-05-05 14:09 | 55.40927 | -5.49158 | 22073 ft | 380 kts | 283° |
| 2026-05-05 14:09 | 55.41518 | -5.53640 | 21906 ft | 380 kts | 283° |
| 2026-05-05 14:10 | 55.42115 | -5.58189 | 21632 ft | 378 kts | 283° |
| 2026-05-05 14:10 | 55.42578 | -5.62726 | 21365 ft | 375 kts | 276° |
| 2026-05-05 14:10 | 55.42692 | -5.67316 | 21130 ft | 374 kts | 269° |
| 2026-05-05 14:10 | 55.42463 | -5.71881 | 20858 ft | 373 kts | 262° |
| 2026-05-05 14:11 | 55.42079 | -5.76402 | 20604 ft | 372 kts | 263° |
| 2026-05-05 14:11 | 55.41713 | -5.80892 | 20348 ft | 370 kts | 263° |
| 2026-05-05 14:11 | 55.41351 | -5.85366 | 20102 ft | 368 kts | 263° |
| 2026-05-05 14:11 | 55.40989 | -5.89815 | 19849 ft | 367 kts | 263° |
| 2026-05-05 14:12 | 55.40625 | -5.94245 | 19582 ft | 365 kts | 263° |
| 2026-05-05 14:12 | 55.40259 | -5.98683 | 19076 ft | 366 kts | 263° |
| 2026-05-05 14:12 | 55.39894 | -6.03065 | 18555 ft | 364 kts | 263° |
| 2026-05-05 14:12 | 55.39528 | -6.07444 | 17998 ft | 360 kts | 263° |
| 2026-05-05 14:13 | 55.39163 | -6.11784 | 17467 ft | 355 kts | 263° |
| 2026-05-05 14:13 | 55.38803 | -6.16053 | 16961 ft | 350 kts | 263° |
| 2026-05-05 14:13 | 55.38445 | -6.20273 | 16448 ft | 346 kts | 263° |
| 2026-05-05 14:13 | 55.38091 | -6.24443 | 15951 ft | 342 kts | 263° |
| 2026-05-05 14:14 | 55.37744 | -6.28504 | 15458 ft | 338 kts | 263° |
| 2026-05-05 14:14 | 55.37395 | -6.32580 | 14959 ft | 335 kts | 263° |
| 2026-05-05 14:14 | 55.37048 | -6.36614 | 14474 ft | 332 kts | 263° |
| 2026-05-05 14:14 | 55.36702 | -6.40621 | 13992 ft | 329 kts | 263° |
| 2026-05-05 14:15 | 55.36358 | -6.44580 | 13474 ft | 326 kts | 263° |
| 2026-05-05 14:15 | 55.36021 | -6.48455 | 13010 ft | 322 kts | 263° |
| 2026-05-05 14:15 | 55.35682 | -6.52332 | 12534 ft | 318 kts | 263° |
| 2026-05-05 14:15 | 55.35346 | -6.56159 | 12070 ft | 315 kts | 263° |
| 2026-05-05 14:16 | 55.35012 | -6.59959 | 11610 ft | 312 kts | 263° |
| 2026-05-05 14:16 | 55.34685 | -6.63660 | 11156 ft | 309 kts | 263° |
| 2026-05-05 14:16 | 55.34357 | -6.67349 | 10704 ft | 307 kts | 263° |
| 2026-05-05 14:16 | 55.34026 | -6.71066 | 10399 ft | 300 kts | 263° |
| 2026-05-05 14:17 | 55.33708 | -6.74611 | 10276 ft | 287 kts | 263° |
| 2026-05-05 14:17 | 55.33401 | -6.78027 | 10019 ft | 280 kts | 263° |
| 2026-05-05 14:17 | 55.33100 | -6.81371 | 9819 ft | 272 kts | 263° |
| 2026-05-05 14:17 | 55.32804 | -6.84676 | 9683 ft | 276 kts | 263° |
| 2026-05-05 14:18 | 55.32500 | -6.88057 | 9350 ft | 282 kts | 263° |
| 2026-05-05 14:18 | 55.32142 | -6.91445 | 8968 ft | 283 kts | 255° |
| 2026-05-05 14:18 | 55.31231 | -6.94500 | 8613 ft | 285 kts | 233° |
| 2026-05-05 14:18 | 55.29777 | -6.96886 | 8166 ft | 288 kts | 222° |
| 2026-05-05 14:19 | 55.29279 | -6.97614 | 8026 ft | 287 kts | 222° |